sensor_id;sensor_type;location;lat;lon;timestamp;P1;durP1;ratioP1;P2;durP2;ratioP2
25299;SDS011;13241;51.208;4.432;2023-04-24T00:01:21;9.77;;;5.70;;
25299;SDS011;13241;51.208;4.432;2023-04-24T00:03:48;10.15;;;5.20;;
25299;SDS011;13241;51.208;4.432;2023-04-24T00:06:16;13.68;;;4.78;;
25299;SDS011;13241;51.208;4.432;2023-04-24T00:08:43;13.73;;;5.88;;
25299;SDS011;13241;51.208;4.432;2023-04-24T00:11:10;14.88;;;6.35;;
25299;SDS011;13241;51.208;4.432;2023-04-24T00:13:37;13.23;;;5.82;;
25299;SDS011;13241;51.208;4.432;2023-04-24T00:16:04;10.98;;;5.68;;
25299;SDS011;13241;51.208;4.432;2023-04-24T00:18:31;12.95;;;5.55;;
25299;SDS011;13241;51.208;4.432;2023-04-24T00:20:59;8.40;;;5.25;;
25299;SDS011;13241;51.208;4.432;2023-04-24T00:23:26;15.07;;;6.22;;
25299;SDS011;13241;51.208;4.432;2023-04-24T00:25:53;18.30;;;6.47;;
25299;SDS011;13241;51.208;4.432;2023-04-24T00:28:20;9.55;;;5.82;;
25299;SDS011;13241;51.208;4.432;2023-04-24T00:30:47;13.13;;;6.35;;
25299;SDS011;13241;51.208;4.432;2023-04-24T00:33:13;13.32;;;6.70;;
25299;SDS011;13241;51.208;4.432;2023-04-24T00:35:41;16.95;;;6.80;;
25299;SDS011;13241;51.208;4.432;2023-04-24T00:38:09;11.73;;;6.25;;
25299;SDS011;13241;51.208;4.432;2023-04-24T00:40:36;13.10;;;6.28;;
25299;SDS011;13241;51.208;4.432;2023-04-24T00:43:03;21.45;;;5.50;;
25299;SDS011;13241;51.208;4.432;2023-04-24T00:45:30;11.13;;;5.35;;
25299;SDS011;13241;51.208;4.432;2023-04-24T00:47:57;12.23;;;6.10;;
25299;SDS011;13241;51.208;4.432;2023-04-24T00:50:24;10.75;;;6.47;;
25299;SDS011;13241;51.208;4.432;2023-04-24T00:52:52;11.05;;;6.20;;
25299;SDS011;13241;51.208;4.432;2023-04-24T00:55:19;11.75;;;6.18;;
25299;SDS011;13241;51.208;4.432;2023-04-24T00:57:46;11.07;;;6.30;;
25299;SDS011;13241;51.208;4.432;2023-04-24T01:00:14;10.88;;;5.53;;
25299;SDS011;13241;51.208;4.432;2023-04-24T01:02:43;10.10;;;6.32;;
25299;SDS011;13241;51.208;4.432;2023-04-24T01:05:15;15.15;;;7.22;;
25299;SDS011;13241;51.208;4.432;2023-04-24T01:07:44;18.92;;;6.22;;
25299;SDS011;13241;51.208;4.432;2023-04-24T01:10:13;14.98;;;7.97;;
25299;SDS011;13241;51.208;4.432;2023-04-24T01:12:40;14.18;;;6.35;;
25299;SDS011;13241;51.208;4.432;2023-04-24T01:15:07;12.63;;;6.60;;
25299;SDS011;13241;51.208;4.432;2023-04-24T01:17:35;10.75;;;6.22;;
25299;SDS011;13241;51.208;4.432;2023-04-24T01:20:02;13.90;;;6.65;;
25299;SDS011;13241;51.208;4.432;2023-04-24T01:22:35;12.43;;;5.95;;
25299;SDS011;13241;51.208;4.432;2023-04-24T01:25:02;10.30;;;5.25;;
25299;SDS011;13241;51.208;4.432;2023-04-24T01:27:30;13.38;;;5.22;;
25299;SDS011;13241;51.208;4.432;2023-04-24T01:29:57;15.75;;;6.40;;
25299;SDS011;13241;51.208;4.432;2023-04-24T01:32:24;11.40;;;5.78;;
25299;SDS011;13241;51.208;4.432;2023-04-24T01:34:51;9.70;;;6.30;;
25299;SDS011;13241;51.208;4.432;2023-04-24T01:37:19;11.75;;;5.70;;
25299;SDS011;13241;51.208;4.432;2023-04-24T01:39:45;8.13;;;4.82;;
25299;SDS011;13241;51.208;4.432;2023-04-24T01:42:12;8.88;;;5.18;;
25299;SDS011;13241;51.208;4.432;2023-04-24T01:44:40;6.82;;;4.93;;
25299;SDS011;13241;51.208;4.432;2023-04-24T01:47:08;9.63;;;5.32;;
25299;SDS011;13241;51.208;4.432;2023-04-24T01:49:37;7.53;;;4.35;;
25299;SDS011;13241;51.208;4.432;2023-04-24T01:52:05;6.40;;;4.78;;
25299;SDS011;13241;51.208;4.432;2023-04-24T01:54:32;6.65;;;3.97;;
25299;SDS011;13241;51.208;4.432;2023-04-24T01:56:58;5.15;;;3.30;;
25299;SDS011;13241;51.208;4.432;2023-04-24T01:59:27;8.50;;;3.72;;
25299;SDS011;13241;51.208;4.432;2023-04-24T02:01:55;4.95;;;3.25;;
25299;SDS011;13241;51.208;4.432;2023-04-24T02:04:22;8.88;;;4.13;;
25299;SDS011;13241;51.208;4.432;2023-04-24T02:06:49;8.50;;;4.72;;
25299;SDS011;13241;51.208;4.432;2023-04-24T02:09:15;10.70;;;4.38;;
25299;SDS011;13241;51.208;4.432;2023-04-24T02:11:43;7.97;;;3.67;;
25299;SDS011;13241;51.208;4.432;2023-04-24T02:14:10;9.55;;;3.30;;
25299;SDS011;13241;51.208;4.432;2023-04-24T02:16:39;7.90;;;3.72;;
25299;SDS011;13241;51.208;4.432;2023-04-24T02:19:06;7.22;;;4.05;;
25299;SDS011;13241;51.208;4.432;2023-04-24T02:21:32;9.70;;;4.15;;
25299;SDS011;13241;51.208;4.432;2023-04-24T02:24:00;6.10;;;3.47;;
25299;SDS011;13241;51.208;4.432;2023-04-24T02:26:27;7.97;;;4.50;;
25299;SDS011;13241;51.208;4.432;2023-04-24T02:28:54;6.30;;;4.00;;
25299;SDS011;13241;51.208;4.432;2023-04-24T02:31:22;9.35;;;4.57;;
25299;SDS011;13241;51.208;4.432;2023-04-24T02:33:49;9.43;;;4.30;;
25299;SDS011;13241;51.208;4.432;2023-04-24T02:36:17;6.78;;;4.45;;
25299;SDS011;13241;51.208;4.432;2023-04-24T02:38:44;9.23;;;5.50;;
25299;SDS011;13241;51.208;4.432;2023-04-24T02:41:12;9.93;;;4.53;;
25299;SDS011;13241;51.208;4.432;2023-04-24T02:43:39;7.72;;;4.78;;
25299;SDS011;13241;51.208;4.432;2023-04-24T02:46:05;6.28;;;3.85;;
25299;SDS011;13241;51.208;4.432;2023-04-24T02:48:32;7.68;;;4.78;;
25299;SDS011;13241;51.208;4.432;2023-04-24T02:50:59;7.40;;;4.55;;
25299;SDS011;13241;51.208;4.432;2023-04-24T02:53:26;7.15;;;4.07;;
25299;SDS011;13241;51.208;4.432;2023-04-24T02:55:53;9.18;;;5.22;;
25299;SDS011;13241;51.208;4.432;2023-04-24T02:58:20;7.07;;;4.57;;
25299;SDS011;13241;51.208;4.432;2023-04-24T03:00:47;7.53;;;4.47;;
25299;SDS011;13241;51.208;4.432;2023-04-24T03:03:14;6.10;;;3.25;;
25299;SDS011;13241;51.208;4.432;2023-04-24T03:05:41;6.53;;;4.03;;
25299;SDS011;13241;51.208;4.432;2023-04-24T03:08:08;4.63;;;3.08;;
25299;SDS011;13241;51.208;4.432;2023-04-24T03:10:36;6.28;;;3.97;;
25299;SDS011;13241;51.208;4.432;2023-04-24T03:13:03;4.60;;;3.58;;
25299;SDS011;13241;51.208;4.432;2023-04-24T03:15:33;7.28;;;3.67;;
25299;SDS011;13241;51.208;4.432;2023-04-24T03:18:00;6.93;;;3.55;;
25299;SDS011;13241;51.208;4.432;2023-04-24T03:20:27;3.97;;;2.90;;
25299;SDS011;13241;51.208;4.432;2023-04-24T03:22:56;6.88;;;4.28;;
25299;SDS011;13241;51.208;4.432;2023-04-24T03:25:23;6.20;;;3.63;;
25299;SDS011;13241;51.208;4.432;2023-04-24T03:27:51;6.80;;;3.85;;
25299;SDS011;13241;51.208;4.432;2023-04-24T03:30:37;10.20;;;5.15;;
25299;SDS011;13241;51.208;4.432;2023-04-24T03:33:04;16.95;;;5.82;;
25299;SDS011;13241;51.208;4.432;2023-04-24T03:35:35;10.05;;;4.95;;
25299;SDS011;13241;51.208;4.432;2023-04-24T03:38:07;7.93;;;4.07;;
25299;SDS011;13241;51.208;4.432;2023-04-24T03:40:43;3.75;;;2.83;;
25299;SDS011;13241;51.208;4.432;2023-04-24T03:43:33;4.93;;;2.60;;
25299;SDS011;13241;51.208;4.432;2023-04-24T03:46:01;6.03;;;3.40;;
25299;SDS011;13241;51.208;4.432;2023-04-24T03:48:31;4.32;;;2.67;;
25299;SDS011;13241;51.208;4.432;2023-04-24T03:50:58;3.97;;;2.15;;
25299;SDS011;13241;51.208;4.432;2023-04-24T03:53:25;6.05;;;2.10;;
25299;SDS011;13241;51.208;4.432;2023-04-24T03:55:53;6.18;;;2.53;;
25299;SDS011;13241;51.208;4.432;2023-04-24T03:58:21;4.07;;;2.25;;
25299;SDS011;13241;51.208;4.432;2023-04-24T04:00:49;2.65;;;1.70;;
25299;SDS011;13241;51.208;4.432;2023-04-24T04:03:36;4.50;;;1.92;;
25299;SDS011;13241;51.208;4.432;2023-04-24T04:06:04;2.63;;;1.90;;
25299;SDS011;13241;51.208;4.432;2023-04-24T04:08:31;8.20;;;1.90;;
25299;SDS011;13241;51.208;4.432;2023-04-24T04:11:00;4.03;;;1.83;;
25299;SDS011;13241;51.208;4.432;2023-04-24T04:13:30;1.80;;;1.20;;
25299;SDS011;13241;51.208;4.432;2023-04-24T04:15:57;3.20;;;1.80;;
25299;SDS011;13241;51.208;4.432;2023-04-24T04:18:24;11.82;;;2.20;;
25299;SDS011;13241;51.208;4.432;2023-04-24T04:20:51;3.78;;;1.80;;
25299;SDS011;13241;51.208;4.432;2023-04-24T04:23:18;3.17;;;2.08;;
25299;SDS011;13241;51.208;4.432;2023-04-24T04:26:03;4.22;;;2.00;;
25299;SDS011;13241;51.208;4.432;2023-04-24T04:28:46;2.85;;;1.55;;
25299;SDS011;13241;51.208;4.432;2023-04-24T04:31:14;2.13;;;1.77;;
25299;SDS011;13241;51.208;4.432;2023-04-24T04:33:41;3.10;;;2.30;;
25299;SDS011;13241;51.208;4.432;2023-04-24T04:36:09;10.85;;;2.88;;
25299;SDS011;13241;51.208;4.432;2023-04-24T04:38:41;4.07;;;2.10;;
25299;SDS011;13241;51.208;4.432;2023-04-24T04:41:29;4.70;;;2.70;;
25299;SDS011;13241;51.208;4.432;2023-04-24T04:43:56;4.35;;;2.38;;
25299;SDS011;13241;51.208;4.432;2023-04-24T04:46:25;8.95;;;2.92;;
25299;SDS011;13241;51.208;4.432;2023-04-24T04:48:59;7.95;;;3.38;;
25299;SDS011;13241;51.208;4.432;2023-04-24T04:51:26;7.85;;;3.38;;
25299;SDS011;13241;51.208;4.432;2023-04-24T04:53:53;11.32;;;3.95;;
25299;SDS011;13241;51.208;4.432;2023-04-24T04:56:20;13.80;;;5.43;;
25299;SDS011;13241;51.208;4.432;2023-04-24T04:58:48;8.07;;;4.38;;
25299;SDS011;13241;51.208;4.432;2023-04-24T05:01:16;6.43;;;3.85;;
25299;SDS011;13241;51.208;4.432;2023-04-24T05:03:46;8.68;;;4.43;;
25299;SDS011;13241;51.208;4.432;2023-04-24T05:06:15;10.63;;;4.70;;
25299;SDS011;13241;51.208;4.432;2023-04-24T05:08:44;8.45;;;4.40;;
25299;SDS011;13241;51.208;4.432;2023-04-24T05:11:24;8.48;;;4.95;;
25299;SDS011;13241;51.208;4.432;2023-04-24T05:13:53;9.88;;;4.30;;
25299;SDS011;13241;51.208;4.432;2023-04-24T05:16:30;9.52;;;4.25;;
25299;SDS011;13241;51.208;4.432;2023-04-24T05:18:58;12.57;;;4.57;;
25299;SDS011;13241;51.208;4.432;2023-04-24T05:21:29;15.30;;;5.13;;
25299;SDS011;13241;51.208;4.432;2023-04-24T05:23:57;14.27;;;4.95;;
25299;SDS011;13241;51.208;4.432;2023-04-24T05:26:40;7.55;;;3.67;;
25299;SDS011;13241;51.208;4.432;2023-04-24T05:29:08;13.02;;;4.20;;
25299;SDS011;13241;51.208;4.432;2023-04-24T05:31:36;6.60;;;3.25;;
25299;SDS011;13241;51.208;4.432;2023-04-24T05:34:03;5.57;;;3.17;;
25299;SDS011;13241;51.208;4.432;2023-04-24T05:36:32;8.55;;;3.85;;
25299;SDS011;13241;51.208;4.432;2023-04-24T05:38:58;7.90;;;4.20;;
25299;SDS011;13241;51.208;4.432;2023-04-24T05:41:25;9.90;;;2.92;;
25299;SDS011;13241;51.208;4.432;2023-04-24T05:43:52;4.97;;;2.38;;
25299;SDS011;13241;51.208;4.432;2023-04-24T05:46:20;5.22;;;2.72;;
25299;SDS011;13241;51.208;4.432;2023-04-24T05:48:47;7.68;;;3.70;;
25299;SDS011;13241;51.208;4.432;2023-04-24T05:51:14;6.32;;;3.65;;
25299;SDS011;13241;51.208;4.432;2023-04-24T05:53:41;8.98;;;4.22;;
25299;SDS011;13241;51.208;4.432;2023-04-24T05:56:08;7.38;;;3.25;;
25299;SDS011;13241;51.208;4.432;2023-04-24T05:58:35;7.72;;;3.55;;
25299;SDS011;13241;51.208;4.432;2023-04-24T06:01:04;8.20;;;4.22;;
25299;SDS011;13241;51.208;4.432;2023-04-24T06:03:32;9.68;;;4.03;;
25299;SDS011;13241;51.208;4.432;2023-04-24T06:06:02;8.25;;;3.83;;
25299;SDS011;13241;51.208;4.432;2023-04-24T06:08:29;24.05;;;5.15;;
25299;SDS011;13241;51.208;4.432;2023-04-24T06:10:56;5.70;;;3.55;;
25299;SDS011;13241;51.208;4.432;2023-04-24T06:13:23;8.82;;;3.97;;
25299;SDS011;13241;51.208;4.432;2023-04-24T06:16:08;18.92;;;4.75;;
25299;SDS011;13241;51.208;4.432;2023-04-24T06:18:38;5.78;;;3.83;;
25299;SDS011;13241;51.208;4.432;2023-04-24T06:21:05;9.68;;;4.65;;
25299;SDS011;13241;51.208;4.432;2023-04-24T06:23:32;10.63;;;4.25;;
25299;SDS011;13241;51.208;4.432;2023-04-24T06:25:59;10.13;;;4.55;;
25299;SDS011;13241;51.208;4.432;2023-04-24T06:28:26;9.77;;;4.65;;
25299;SDS011;13241;51.208;4.432;2023-04-24T06:30:53;9.93;;;4.28;;
25299;SDS011;13241;51.208;4.432;2023-04-24T06:33:20;14.43;;;4.90;;
25299;SDS011;13241;51.208;4.432;2023-04-24T06:35:49;9.68;;;4.25;;
25299;SDS011;13241;51.208;4.432;2023-04-24T06:38:16;8.88;;;4.30;;
25299;SDS011;13241;51.208;4.432;2023-04-24T06:40:43;10.05;;;3.85;;
25299;SDS011;13241;51.208;4.432;2023-04-24T06:43:11;7.72;;;3.88;;
25299;SDS011;13241;51.208;4.432;2023-04-24T06:45:39;11.60;;;4.68;;
25299;SDS011;13241;51.208;4.432;2023-04-24T06:48:06;11.20;;;4.53;;
25299;SDS011;13241;51.208;4.432;2023-04-24T06:50:33;13.95;;;4.43;;
25299;SDS011;13241;51.208;4.432;2023-04-24T06:53:00;8.98;;;4.10;;
25299;SDS011;13241;51.208;4.432;2023-04-24T06:55:26;9.02;;;4.03;;
25299;SDS011;13241;51.208;4.432;2023-04-24T06:57:54;10.40;;;4.70;;
25299;SDS011;13241;51.208;4.432;2023-04-24T07:00:21;6.72;;;3.67;;
25299;SDS011;13241;51.208;4.432;2023-04-24T07:02:50;9.00;;;3.45;;
25299;SDS011;13241;51.208;4.432;2023-04-24T07:05:17;4.75;;;2.53;;
25299;SDS011;13241;51.208;4.432;2023-04-24T07:07:47;8.63;;;2.80;;
25299;SDS011;13241;51.208;4.432;2023-04-24T07:10:15;5.85;;;2.60;;
25299;SDS011;13241;51.208;4.432;2023-04-24T07:12:42;8.82;;;2.33;;
25299;SDS011;13241;51.208;4.432;2023-04-24T07:15:08;7.20;;;3.10;;
25299;SDS011;13241;51.208;4.432;2023-04-24T07:17:36;3.75;;;2.20;;
25299;SDS011;13241;51.208;4.432;2023-04-24T07:20:04;8.90;;;2.97;;
25299;SDS011;13241;51.208;4.432;2023-04-24T07:22:34;6.50;;;2.10;;
25299;SDS011;13241;51.208;4.432;2023-04-24T07:25:00;4.47;;;1.85;;
25299;SDS011;13241;51.208;4.432;2023-04-24T07:27:27;6.07;;;2.08;;
25299;SDS011;13241;51.208;4.432;2023-04-24T07:29:54;4.03;;;2.17;;
25299;SDS011;13241;51.208;4.432;2023-04-24T07:32:21;4.95;;;2.80;;
25299;SDS011;13241;51.208;4.432;2023-04-24T07:34:48;6.70;;;2.17;;
25299;SDS011;13241;51.208;4.432;2023-04-24T07:37:15;5.65;;;2.00;;
25299;SDS011;13241;51.208;4.432;2023-04-24T07:39:42;5.78;;;2.03;;
25299;SDS011;13241;51.208;4.432;2023-04-24T07:42:10;9.68;;;1.70;;
25299;SDS011;13241;51.208;4.432;2023-04-24T07:44:36;8.55;;;2.60;;
25299;SDS011;13241;51.208;4.432;2023-04-24T07:47:03;5.35;;;1.92;;
25299;SDS011;13241;51.208;4.432;2023-04-24T07:49:30;6.78;;;2.25;;
25299;SDS011;13241;51.208;4.432;2023-04-24T07:51:57;2.15;;;1.48;;
25299;SDS011;13241;51.208;4.432;2023-04-24T07:54:26;9.05;;;2.83;;
25299;SDS011;13241;51.208;4.432;2023-04-24T07:56:53;9.63;;;2.08;;
25299;SDS011;13241;51.208;4.432;2023-04-24T07:59:20;3.72;;;2.05;;
25299;SDS011;13241;51.208;4.432;2023-04-24T08:01:47;2.05;;;1.45;;
25299;SDS011;13241;51.208;4.432;2023-04-24T08:04:14;7.53;;;2.20;;
25299;SDS011;13241;51.208;4.432;2023-04-24T08:06:41;4.50;;;1.40;;
25299;SDS011;13241;51.208;4.432;2023-04-24T08:09:08;6.32;;;2.00;;
25299;SDS011;13241;51.208;4.432;2023-04-24T08:11:35;3.45;;;1.42;;
25299;SDS011;13241;51.208;4.432;2023-04-24T08:14:02;6.40;;;1.58;;
25299;SDS011;13241;51.208;4.432;2023-04-24T08:16:29;4.38;;;1.85;;
25299;SDS011;13241;51.208;4.432;2023-04-24T08:18:56;4.47;;;2.08;;
25299;SDS011;13241;51.208;4.432;2023-04-24T08:21:22;5.07;;;1.98;;
25299;SDS011;13241;51.208;4.432;2023-04-24T08:23:49;3.70;;;2.05;;
25299;SDS011;13241;51.208;4.432;2023-04-24T08:26:16;6.30;;;1.95;;
25299;SDS011;13241;51.208;4.432;2023-04-24T08:28:43;5.22;;;2.88;;
25299;SDS011;13241;51.208;4.432;2023-04-24T08:31:10;4.22;;;1.90;;
25299;SDS011;13241;51.208;4.432;2023-04-24T08:33:37;7.22;;;1.92;;
25299;SDS011;13241;51.208;4.432;2023-04-24T08:36:05;8.20;;;2.10;;
25299;SDS011;13241;51.208;4.432;2023-04-24T08:38:32;4.38;;;1.95;;
25299;SDS011;13241;51.208;4.432;2023-04-24T08:41:00;8.90;;;2.65;;
25299;SDS011;13241;51.208;4.432;2023-04-24T08:43:27;4.65;;;1.80;;
25299;SDS011;13241;51.208;4.432;2023-04-24T08:45:55;11.02;;;3.08;;
25299;SDS011;13241;51.208;4.432;2023-04-24T08:48:23;4.03;;;2.45;;
25299;SDS011;13241;51.208;4.432;2023-04-24T08:50:57;4.43;;;1.27;;
25299;SDS011;13241;51.208;4.432;2023-04-24T08:53:25;2.92;;;1.27;;
25299;SDS011;13241;51.208;4.432;2023-04-24T08:55:54;7.03;;;1.70;;
25299;SDS011;13241;51.208;4.432;2023-04-24T08:58:22;5.30;;;1.50;;
25299;SDS011;13241;51.208;4.432;2023-04-24T09:00:55;5.55;;;1.20;;
25299;SDS011;13241;51.208;4.432;2023-04-24T09:03:23;3.95;;;1.23;;
25299;SDS011;13241;51.208;4.432;2023-04-24T09:05:51;2.47;;;0.80;;
25299;SDS011;13241;51.208;4.432;2023-04-24T09:08:20;7.00;;;1.23;;
25299;SDS011;13241;51.208;4.432;2023-04-24T09:10:51;5.20;;;2.17;;
25299;SDS011;13241;51.208;4.432;2023-04-24T09:13:18;1.73;;;1.10;;
25299;SDS011;13241;51.208;4.432;2023-04-24T09:15:46;6.65;;;1.60;;
25299;SDS011;13241;51.208;4.432;2023-04-24T09:18:13;4.18;;;1.40;;
25299;SDS011;13241;51.208;4.432;2023-04-24T09:23:30;8.32;;;1.73;;
25299;SDS011;13241;51.208;4.432;2023-04-24T09:25:58;5.00;;;1.45;;
25299;SDS011;13241;51.208;4.432;2023-04-24T09:28:31;8.98;;;2.22;;
25299;SDS011;13241;51.208;4.432;2023-04-24T09:31:05;5.10;;;1.10;;
25299;SDS011;13241;51.208;4.432;2023-04-24T09:33:33;3.60;;;1.15;;
25299;SDS011;13241;51.208;4.432;2023-04-24T09:36:00;3.53;;;1.38;;
25299;SDS011;13241;51.208;4.432;2023-04-24T09:38:35;9.95;;;1.77;;
25299;SDS011;13241;51.208;4.432;2023-04-24T09:41:07;5.55;;;1.95;;
25299;SDS011;13241;51.208;4.432;2023-04-24T09:43:39;1.77;;;1.13;;
25299;SDS011;13241;51.208;4.432;2023-04-24T09:46:06;4.28;;;1.50;;
25299;SDS011;13241;51.208;4.432;2023-04-24T09:48:36;5.88;;;1.67;;
25299;SDS011;13241;51.208;4.432;2023-04-24T09:51:05;3.67;;;1.38;;
25299;SDS011;13241;51.208;4.432;2023-04-24T09:53:33;2.80;;;1.33;;
25299;SDS011;13241;51.208;4.432;2023-04-24T09:56:09;5.95;;;1.20;;
25299;SDS011;13241;51.208;4.432;2023-04-24T09:58:37;10.00;;;2.45;;
25299;SDS011;13241;51.208;4.432;2023-04-24T10:01:05;7.18;;;2.20;;
25299;SDS011;13241;51.208;4.432;2023-04-24T10:03:32;8.65;;;1.67;;
25299;SDS011;13241;51.208;4.432;2023-04-24T10:06:02;2.65;;;1.23;;
25299;SDS011;13241;51.208;4.432;2023-04-24T10:08:35;2.72;;;1.30;;
25299;SDS011;13241;51.208;4.432;2023-04-24T10:11:03;2.25;;;1.45;;
25299;SDS011;13241;51.208;4.432;2023-04-24T10:13:32;9.23;;;1.70;;
25299;SDS011;13241;51.208;4.432;2023-04-24T10:16:00;4.45;;;1.00;;
25299;SDS011;13241;51.208;4.432;2023-04-24T10:18:27;5.43;;;1.60;;
25299;SDS011;13241;51.208;4.432;2023-04-24T10:20:56;3.22;;;1.27;;
25299;SDS011;13241;51.208;4.432;2023-04-24T10:23:24;0.80;;;0.77;;
25299;SDS011;13241;51.208;4.432;2023-04-24T10:25:52;1.63;;;1.00;;
25299;SDS011;13241;51.208;4.432;2023-04-24T10:28:20;4.22;;;1.65;;
25299;SDS011;13241;51.208;4.432;2023-04-24T10:30:48;5.05;;;1.23;;
25299;SDS011;13241;51.208;4.432;2023-04-24T10:33:16;2.53;;;1.45;;
25299;SDS011;13241;51.208;4.432;2023-04-24T10:35:44;1.83;;;1.35;;
25299;SDS011;13241;51.208;4.432;2023-04-24T10:38:16;5.13;;;1.10;;
25299;SDS011;13241;51.208;4.432;2023-04-24T10:40:48;4.13;;;1.63;;
25299;SDS011;13241;51.208;4.432;2023-04-24T10:43:16;3.17;;;1.40;;
25299;SDS011;13241;51.208;4.432;2023-04-24T10:45:59;6.90;;;2.25;;
25299;SDS011;13241;51.208;4.432;2023-04-24T10:48:28;4.43;;;1.05;;
25299;SDS011;13241;51.208;4.432;2023-04-24T10:50:55;2.58;;;0.93;;
25299;SDS011;13241;51.208;4.432;2023-04-24T10:53:23;3.92;;;1.65;;
25299;SDS011;13241;51.208;4.432;2023-04-24T10:58:25;2.75;;;1.33;;
25299;SDS011;13241;51.208;4.432;2023-04-24T11:01:25;3.97;;;1.20;;
25299;SDS011;13241;51.208;4.432;2023-04-24T11:04:00;9.38;;;1.23;;
25299;SDS011;13241;51.208;4.432;2023-04-24T11:06:35;2.58;;;1.30;;
25299;SDS011;13241;51.208;4.432;2023-04-24T11:09:09;0.95;;;0.70;;
25299;SDS011;13241;51.208;4.432;2023-04-24T11:11:43;1.58;;;0.70;;
25299;SDS011;13241;51.208;4.432;2023-04-24T11:14:15;1.30;;;0.85;;
25299;SDS011;13241;51.208;4.432;2023-04-24T11:16:51;1.48;;;0.90;;
25299;SDS011;13241;51.208;4.432;2023-04-24T11:19:23;0.60;;;0.60;;
25299;SDS011;13241;51.208;4.432;2023-04-24T11:21:55;3.13;;;0.50;;
25299;SDS011;13241;51.208;4.432;2023-04-24T11:24:31;5.82;;;0.93;;
25299;SDS011;13241;51.208;4.432;2023-04-24T11:29:49;1.48;;;0.60;;
25299;SDS011;13241;51.208;4.432;2023-04-24T11:35:00;3.28;;;0.93;;
25299;SDS011;13241;51.208;4.432;2023-04-24T11:37:29;0.45;;;0.38;;
25299;SDS011;13241;51.208;4.432;2023-04-24T11:40:00;1.33;;;0.82;;
25299;SDS011;13241;51.208;4.432;2023-04-24T11:42:28;1.17;;;0.88;;
25299;SDS011;13241;51.208;4.432;2023-04-24T11:44:59;4.60;;;1.15;;
25299;SDS011;13241;51.208;4.432;2023-04-24T11:47:29;2.72;;;0.57;;
25299;SDS011;13241;51.208;4.432;2023-04-24T11:49:57;3.47;;;0.95;;
25299;SDS011;13241;51.208;4.432;2023-04-24T11:52:25;1.75;;;1.00;;
25299;SDS011;13241;51.208;4.432;2023-04-24T11:54:53;2.13;;;0.82;;
25299;SDS011;13241;51.208;4.432;2023-04-24T11:57:20;10.07;;;1.27;;
25299;SDS011;13241;51.208;4.432;2023-04-24T11:59:53;1.80;;;0.95;;
25299;SDS011;13241;51.208;4.432;2023-04-24T12:02:24;2.85;;;1.00;;
25299;SDS011;13241;51.208;4.432;2023-04-24T12:04:53;1.23;;;0.80;;
25299;SDS011;13241;51.208;4.432;2023-04-24T12:07:21;1.02;;;0.73;;
25299;SDS011;13241;51.208;4.432;2023-04-24T12:09:56;3.70;;;0.95;;
25299;SDS011;13241;51.208;4.432;2023-04-24T12:12:28;2.17;;;1.75;;
25299;SDS011;13241;51.208;4.432;2023-04-24T12:14:56;3.13;;;0.70;;
25299;SDS011;13241;51.208;4.432;2023-04-24T12:17:25;1.02;;;0.82;;
25299;SDS011;13241;51.208;4.432;2023-04-24T12:20:01;2.28;;;0.75;;
25299;SDS011;13241;51.208;4.432;2023-04-24T12:25:16;1.60;;;1.50;;
25299;SDS011;13241;51.208;4.432;2023-04-24T12:27:45;1.13;;;0.82;;
25299;SDS011;13241;51.208;4.432;2023-04-24T12:30:14;4.05;;;0.80;;
25299;SDS011;13241;51.208;4.432;2023-04-24T12:32:43;1.08;;;0.80;;
25299;SDS011;13241;51.208;4.432;2023-04-24T12:35:11;2.58;;;0.70;;
25299;SDS011;13241;51.208;4.432;2023-04-24T12:37:41;2.80;;;0.80;;
25299;SDS011;13241;51.208;4.432;2023-04-24T12:42:44;3.38;;;1.10;;
25299;SDS011;13241;51.208;4.432;2023-04-24T12:45:13;1.13;;;0.90;;
25299;SDS011;13241;51.208;4.432;2023-04-24T12:47:44;4.07;;;1.00;;
25299;SDS011;13241;51.208;4.432;2023-04-24T12:50:14;1.85;;;1.05;;
25299;SDS011;13241;51.208;4.432;2023-04-24T12:52:42;3.70;;;1.25;;
25299;SDS011;13241;51.208;4.432;2023-04-24T12:55:10;0.68;;;0.68;;
25299;SDS011;13241;51.208;4.432;2023-04-24T12:57:39;5.13;;;1.00;;
25299;SDS011;13241;51.208;4.432;2023-04-24T13:00:07;2.30;;;0.75;;
25299;SDS011;13241;51.208;4.432;2023-04-24T13:02:36;3.20;;;0.90;;
25299;SDS011;13241;51.208;4.432;2023-04-24T13:05:04;3.85;;;1.38;;
25299;SDS011;13241;51.208;4.432;2023-04-24T13:07:32;1.02;;;0.80;;
25299;SDS011;13241;51.208;4.432;2023-04-24T13:09:59;3.78;;;1.60;;
25299;SDS011;13241;51.208;4.432;2023-04-24T13:12:27;2.00;;;1.27;;
25299;SDS011;13241;51.208;4.432;2023-04-24T13:14:54;1.45;;;0.85;;
25299;SDS011;13241;51.208;4.432;2023-04-24T13:17:22;5.15;;;1.05;;
25299;SDS011;13241;51.208;4.432;2023-04-24T13:19:53;1.00;;;0.80;;
25299;SDS011;13241;51.208;4.432;2023-04-24T13:22:21;0.70;;;0.50;;
25299;SDS011;13241;51.208;4.432;2023-04-24T13:24:49;0.52;;;0.50;;
25299;SDS011;13241;51.208;4.432;2023-04-24T13:27:17;7.43;;;1.55;;
25299;SDS011;13241;51.208;4.432;2023-04-24T13:29:48;0.75;;;0.75;;
25299;SDS011;13241;51.208;4.432;2023-04-24T13:32:16;1.65;;;0.70;;
25299;SDS011;13241;51.208;4.432;2023-04-24T13:34:44;0.40;;;0.40;;
25299;SDS011;13241;51.208;4.432;2023-04-24T13:37:11;3.70;;;1.42;;
25299;SDS011;13241;51.208;4.432;2023-04-24T13:39:39;0.25;;;0.25;;
25299;SDS011;13241;51.208;4.432;2023-04-24T13:42:08;5.47;;;1.38;;
25299;SDS011;13241;51.208;4.432;2023-04-24T13:44:35;1.17;;;0.75;;
25299;SDS011;13241;51.208;4.432;2023-04-24T13:47:04;1.17;;;0.77;;
25299;SDS011;13241;51.208;4.432;2023-04-24T13:49:32;1.73;;;0.60;;
25299;SDS011;13241;51.208;4.432;2023-04-24T13:51:59;1.42;;;0.73;;
25299;SDS011;13241;51.208;4.432;2023-04-24T13:54:28;0.65;;;0.65;;
25299;SDS011;13241;51.208;4.432;2023-04-24T13:56:57;1.25;;;0.73;;
25299;SDS011;13241;51.208;4.432;2023-04-24T13:59:25;0.95;;;0.82;;
25299;SDS011;13241;51.208;4.432;2023-04-24T14:01:52;1.83;;;0.70;;
25299;SDS011;13241;51.208;4.432;2023-04-24T14:04:20;5.95;;;0.70;;
25299;SDS011;13241;51.208;4.432;2023-04-24T14:06:55;1.10;;;0.98;;
25299;SDS011;13241;51.208;4.432;2023-04-24T14:09:22;0.93;;;0.77;;
25299;SDS011;13241;51.208;4.432;2023-04-24T14:11:51;2.28;;;0.77;;
25299;SDS011;13241;51.208;4.432;2023-04-24T14:14:18;9.10;;;0.77;;
25299;SDS011;13241;51.208;4.432;2023-04-24T14:19:41;3.00;;;1.02;;
25299;SDS011;13241;51.208;4.432;2023-04-24T14:22:11;0.82;;;0.82;;
25299;SDS011;13241;51.208;4.432;2023-04-24T14:24:40;1.50;;;0.70;;
25299;SDS011;13241;51.208;4.432;2023-04-24T14:27:07;0.88;;;0.68;;
25299;SDS011;13241;51.208;4.432;2023-04-24T14:29:35;5.18;;;0.80;;
25299;SDS011;13241;51.208;4.432;2023-04-24T14:32:03;0.68;;;0.40;;
25299;SDS011;13241;51.208;4.432;2023-04-24T14:34:30;1.67;;;0.63;;
25299;SDS011;13241;51.208;4.432;2023-04-24T14:36:57;1.30;;;0.60;;
25299;SDS011;13241;51.208;4.432;2023-04-24T14:39:25;3.75;;;1.42;;
25299;SDS011;13241;51.208;4.432;2023-04-24T14:41:52;0.77;;;0.70;;
25299;SDS011;13241;51.208;4.432;2023-04-24T14:44:19;2.70;;;1.13;;
25299;SDS011;13241;51.208;4.432;2023-04-24T14:46:47;2.28;;;0.95;;
25299;SDS011;13241;51.208;4.432;2023-04-24T14:49:15;1.08;;;0.88;;
25299;SDS011;13241;51.208;4.432;2023-04-24T14:51:42;0.63;;;0.63;;
25299;SDS011;13241;51.208;4.432;2023-04-24T14:54:10;0.63;;;0.63;;
25299;SDS011;13241;51.208;4.432;2023-04-24T14:56:37;2.30;;;1.10;;
25299;SDS011;13241;51.208;4.432;2023-04-24T14:59:07;4.38;;;1.42;;
25299;SDS011;13241;51.208;4.432;2023-04-24T15:01:34;1.80;;;0.65;;
25299;SDS011;13241;51.208;4.432;2023-04-24T15:04:02;1.65;;;0.85;;
25299;SDS011;13241;51.208;4.432;2023-04-24T15:06:31;5.25;;;1.05;;
25299;SDS011;13241;51.208;4.432;2023-04-24T15:08:59;0.80;;;0.80;;
25299;SDS011;13241;51.208;4.432;2023-04-24T15:11:26;0.85;;;0.80;;
25299;SDS011;13241;51.208;4.432;2023-04-24T15:13:59;0.70;;;0.60;;